Autopride — CQQE — position and weather

sailwx.info

Track history (hours):
 
Tides and Currents Weather Stations Pressure Air Temp Water Temp Dewpoint Dewpoint Depression Visibility Wind Speed Wind Dir Waves Ship Positions

Autopride

Last reported at 2016-Dec-09 11:33 UTC. Time now 2016-Dec-09 11:40 UTC.
Position N 59°09' E 010°38'.

Length 125 m; draft 5.7 m.

Type: Cargo ship. MMSI: 255801560.

Date/timePositionNaut miles runAvg speedWind from/ knotsBaromVisibWave heightAir tempDewpointWater temp
2016-Dec-09 11:33N 59°09' E 010°38'1919.1
2016-Dec-09 10:33N 59°28' E 010°34'1414.2
2016-Dec-09 09:33N 59°42' E 010°35'1211.7
2016-Dec-09 08:33N 59°53' E 010°44'1 1.2
2016-Dec-09 07:33N 59°53' E 010°46'0 0.0
2016-Dec-09 06:24N 59°53' E 010°46'0 0.0
2016-Dec-09 05:30N 59°53' E 010°46'0 0.0
2016-Dec-09 04:24N 59°53' E 010°46'0 0.0
2016-Dec-09 03:18N 59°53' E 010°46'0 0.0
2016-Dec-09 02:29N 59°53' E 010°46'0 0.0
2016-Dec-09 01:33N 59°53' E 010°46'9 9.3
2016-Dec-09 00:33N 59°46' E 010°34'1111.4
2016-Dec-08 23:33N 59°34' E 010°38'6 6.5
2016-Dec-08 22:33N 59°36' E 010°25'2 0.3
2016-Dec-08 15:28N 59°38' E 010°25'1011.2
2016-Dec-08 14:34N 59°28' E 010°30'1918.9
2016-Dec-08 13:34N 59°10' E 010°39'1818.0
2016-Dec-08 12:34N 58°54' E 010°25'1817.9
2016-Dec-08 11:33N 58°38' E 010°07'1817.8
2016-Dec-08 10:33N 58°23' E 009°48'17717.7
2016-Dec-08 00:32N 55°44' E 007°27'1717.0
2016-Dec-07 23:33N 55°27' E 007°24'1717.3
2016-Dec-07 22:33N 55°10' E 007°26'1717.4
2016-Dec-07 21:34N 54°53' E 007°27'6416.1
2016-Dec-07 17:33N 53°51' E 008°01'1717.2
2016-Dec-07 16:33N 53°40' E 008°23'8 8.1
2016-Dec-07 15:34N 53°34' E 008°33'0 0.3
2016-Dec-07 14:33N 53°35' E 008°34'0 0.0
2016-Dec-07 13:33N 53°35' E 008°34'0 0.0
2016-Dec-07 12:33N 53°35' E 008°34'0 0.0
2016-Dec-07 11:33N 53°35' E 008°34'0 0.0
2016-Dec-07 10:33N 53°35' E 008°34'0 0.0
2016-Dec-07 09:33N 53°35' E 008°34'0 0.0
2016-Dec-07 08:33N 53°35' E 008°34'1 0.6
2016-Dec-07 07:32N 53°34' E 008°34'0 0.0
2016-Dec-07 06:32N 53°34' E 008°34'0 0.0
2016-Dec-07 05:32N 53°34' E 008°34'0 0.0
2016-Dec-07 04:32N 53°34' E 008°34'0 0.5
2016-Dec-07 03:33N 53°34' E 008°34'3 2.9
2016-Dec-07 02:33N 53°36' E 008°31'1414.5
2016-Dec-07 01:33N 53°45' E 008°12'1514.9
2016-Dec-07 00:33N 53°52' E 007°50'1212.1
2016-Dec-06 23:33N 54°01' E 007°35'1211.9
2016-Dec-06 22:30N 54°12' E 007°27'1111.9
2016-Dec-06 21:33N 54°24' E 007°25'1411.4
2016-Dec-06 20:18N 54°38' E 007°25'2011.5
2016-Dec-06 18:33N 54°58' E 007°24'1211.7
2016-Dec-06 17:34N 55°10' E 007°24'1211.7
2016-Dec-06 16:32N 55°22' E 007°22'1211.9
2016-Dec-06 15:33N 55°33' E 007°22'1311.8
2016-Dec-06 14:26N 55°46' E 007°26'15912.9
2016-Dec-06 02:07N 58°09' E 009°33'2413.8
2016-Dec-06 00:22N 58°29' E 010°00'1114.1
2016-Dec-05 23:33N 58°38' E 010°13'1413.8
2016-Dec-05 22:33N 58°51' E 010°25'1414.2
2016-Dec-05 21:34N 59°04' E 010°36'1717.4
2016-Dec-05 20:33N 59°21' E 010°35'1717.5
2016-Dec-05 19:33N 59°39' E 010°37'1414.3
2016-Dec-05 18:33N 59°53' E 010°40'3 2.4
2016-Dec-05 17:13N 59°53' E 010°46'0 0.0
2016-Dec-05 16:31N 59°53' E 010°46'0 0.0
2016-Dec-05 15:31N 59°53' E 010°46'0 0.0
2016-Dec-05 14:28N 59°53' E 010°46'0 0.0
2016-Dec-05 13:31N 59°53' E 010°46'0 0.0
2016-Dec-05 12:31N 59°53' E 010°46'0 0.0
2016-Dec-05 11:31N 59°53' E 010°46'1010.4
2016-Dec-05 10:34N 59°45' E 010°34'1413.8
2016-Dec-05 09:33N 59°31' E 010°36'1918.6
2016-Dec-05 08:33N 59°13' E 010°39'1818.2
2016-Dec-05 07:34N 58°56' E 010°27'1817.9
2016-Dec-05 06:33N 58°41' E 010°08'1918.5
2016-Dec-05 05:33N 58°25' E 009°48'1918.6
2016-Dec-05 04:33N 58°09' E 009°29'16518.3
2016-Dec-04 19:32N 55°40' E 007°23'1818.7
2016-Dec-04 18:33N 55°21' E 007°25'1918.9
2016-Dec-04 17:33N 55°02' E 007°25'1919.3
2016-Dec-04 16:33N 54°43' E 007°27'3819.1
2016-Dec-04 14:33N 54°05' E 007°35'1817.5
2016-Dec-04 13:33N 53°52' E 007°55'1716.6
2016-Dec-04 12:33N 53°43' E 008°18'1313.4
2016-Dec-04 11:33N 53°33' E 008°33'1 0.7
2016-Dec-04 10:32N 53°34' E 008°34'0 0.0
2016-Dec-04 09:32N 53°34' E 008°34'0 0.0
2016-Dec-04 08:32N 53°34' E 008°34'0 0.0
2016-Dec-04 07:32N 53°34' E 008°34'0 0.0
2016-Dec-04 06:32N 53°34' E 008°34'0 0.0
2016-Dec-04 05:32N 53°34' E 008°34'0 0.0
2016-Dec-04 04:32N 53°34' E 008°34'0 0.0
2016-Dec-04 03:32N 53°34' E 008°34'0 0.2
2016-Dec-04 02:33N 53°34' E 008°34'0 0.4
2016-Dec-04 01:31N 53°34' E 008°34'0 0.0
2016-Dec-04 00:31N 53°34' E 008°34'0 0.0
2016-Dec-03 23:31N 53°34' E 008°34'0 0.0
2016-Dec-03 22:31N 53°34' E 008°34'0 0.0
2016-Dec-03 21:31N 53°34' E 008°34'0 0.0
2016-Dec-03 20:31N 53°34' E 008°34'0 0.0
2016-Dec-03 19:31N 53°34' E 008°34'0 0.0
2016-Dec-03 18:31N 53°34' E 008°34'0 0.0
2016-Dec-03 17:31N 53°34' E 008°34'0 0.0
2016-Dec-03 16:31N 53°34' E 008°34'0 0.0
2016-Dec-03 15:31N 53°34' E 008°34'0 0.0
2016-Dec-03 14:31N 53°34' E 008°34'0 0.0
2016-Dec-03 13:31N 53°34' E 008°34'0 0.0
2016-Dec-03 12:31N 53°34' E 008°34'0 0.0
2016-Dec-03 11:31N 53°34' E 008°34'0 0.0
2016-Dec-03 10:31N 53°34' E 008°34'0 0.0
2016-Dec-03 09:31N 53°34' E 008°34'0 0.0
2016-Dec-03 08:31N 53°34' E 008°34'0 0.0
2016-Dec-03 07:31N 53°34' E 008°34'0 0.0
2016-Dec-03 06:31N 53°34' E 008°34'0 0.0
2016-Dec-03 05:31N 53°34' E 008°34'1 0.5
2016-Dec-03 04:34N 53°33' E 008°34'3 2.8
2016-Dec-03 03:33N 53°36' E 008°31'1515.0
2016-Dec-03 02:33N 53°45' E 008°11'1313.1
2016-Dec-03 01:33N 53°52' E 007°52'56 9.4
2016-Dec-02 19:33N 54°46' E 007°25'1010.4
2016-Dec-02 18:34N 54°56' E 007°24'1010.2
2016-Dec-02 17:33N 55°07' E 007°24'10 9.8
2016-Dec-02 16:33N 55°16' E 007°24'9 9.5
2016-Dec-02 15:34N 55°26' E 007°23'10 9.6
2016-Dec-02 14:32N 55°36' E 007°21'9 9.5
2016-Dec-02 13:33N 55°44' E 007°26'20717.3
2016-Dec-02 01:33N 58°48' E 010°23'1616.3
2016-Dec-02 00:34N 58°34' E 010°07'1212.3
2016-Dec-01 23:33N 58°44' E 010°20'1312.7
2016-Dec-01 22:34N 58°56' E 010°30'1313.4
2016-Dec-01 21:33N 59°09' E 010°38'2019.6
2016-Dec-01 20:33N 59°28' E 010°30'1716.6
2016-Dec-01 19:31N 59°44' E 010°16'1 1.0
2016-Dec-01 18:31N 59°44' E 010°14'4 1.0
2016-Dec-01 14:12N 59°42' E 010°21'710.3
2016-Dec-01 13:33N 59°36' E 010°26'6 6.2
2016-Dec-01 12:33N 59°35' E 010°38'1615.6
2016-Dec-01 11:33N 59°50' E 010°35'6 6.1
2016-Dec-01 10:32N 59°53' E 010°46'0 0.0
2016-Dec-01 09:32N 59°53' E 010°46'0 0.0
2016-Dec-01 08:32N 59°53' E 010°46'0 0.0
2016-Dec-01 07:26N 59°53' E 010°46'6857.3
2016-Dec-01 06:15N 58°46' E 010°21'6840.0
2016-Dec-01 04:33N 59°53' E 010°45'1312.5
2016-Dec-01 03:33N 59°41' E 010°36'1515.1
2016-Dec-01 02:33N 59°26' E 010°34'1818.4
2016-Dec-01 01:33N 59°08' E 010°39'1818.3
2016-Dec-01 00:33N 58°52' E 010°22'1818.0
2016-Nov-30 23:33N 58°37' E 010°02'7979.1
2016-Nov-30 22:33N 59°53' E 010°46'0 0.0
2016-Nov-30 21:30N 59°53' E 010°46'0 0.0
2016-Nov-30 20:33N 59°53' E 010°46'0 0.0
2016-Nov-30 19:33N 59°53' E 010°46'0 0.0
2016-Nov-30 18:33N 59°53' E 010°46'0 0.0
2016-Nov-30 17:32N 59°53' E 010°46'0 0.0
2016-Nov-30 16:32N 59°53' E 010°46'0 0.0
2016-Nov-30 15:30N 59°53' E 010°46'0 0.0
2016-Nov-30 14:32N 59°53' E 010°46'0 0.0
2016-Nov-30 13:32N 59°53' E 010°46'0 0.0
2016-Nov-30 12:30N 59°53' E 010°46'286301.5
2016-Nov-30 11:33N 55°29' E 007°23'1615.7
2016-Nov-30 10:33N 55°13' E 007°25'1615.8
2016-Nov-30 09:33N 54°58' E 007°27'1616.0
2016-Nov-30 08:33N 54°42' E 007°30'295295.2
2016-Nov-30 07:33N 59°19' E 010°36'1212.2
2016-Nov-30 06:33N 59°07' E 010°38'1010.1
2016-Nov-30 05:33N 58°58' E 010°30'320320.0
2016-Nov-30 04:33N 53°47' E 008°09'1818.2
2016-Nov-30 03:33N 53°35' E 008°32'2 1.6
2016-Nov-30 02:33N 53°34' E 008°34'0 0.1
2016-Nov-30 01:31N 53°34' E 008°34'0 0.0
2016-Nov-30 00:31N 53°34' E 008°34'0 0.0
2016-Nov-29 23:28N 53°34' E 008°34'1 0.8
2016-Nov-29 22:33N 53°34' E 008°33'0 0.3
2016-Nov-29 21:31N 53°35' E 008°34'0 0.0
2016-Nov-29 20:31N 53°35' E 008°34'0 0.0
2016-Nov-29 19:31N 53°35' E 008°34'0 0.0
2016-Nov-29 18:31N 53°35' E 008°34'0 0.0
2016-Nov-29 17:31N 53°35' E 008°34'0 0.0
2016-Nov-29 16:31N 53°35' E 008°34'1 0.8
2016-Nov-29 15:33N 53°34' E 008°33'7 7.2
2016-Nov-29 14:34N 53°39' E 008°24'1312.7
2016-Nov-29 13:34N 53°48' E 008°08'1313.3
2016-Nov-29 12:33N 53°53' E 007°47'  
Track history (hours):
 
Tides and Currents Weather Stations Pressure Air Temp Water Temp Dewpoint Dewpoint Depression Visibility Wind Speed Wind Dir Waves Ship Positions

Autopride

Last reported at 2016-Dec-09 11:33 UTC. Time now 2016-Dec-09 11:40 UTC.
Position N 59°09' E 010°38'.

Length 125 m; draft 5.7 m.

Type: Cargo ship. MMSI: 255801560.

Date/timePositionNaut miles runAvg speedWind from/ knotsBaromVisibWave heightAir tempDewpointWater temp
2016-Dec-09 11:33N 59°09' E 010°38'1919.1
2016-Dec-09 10:33N 59°28' E 010°34'1414.2
2016-Dec-09 09:33N 59°42' E 010°35'1211.7
2016-Dec-09 08:33N 59°53' E 010°44'1 1.2
2016-Dec-09 07:33N 59°53' E 010°46'0 0.0
2016-Dec-09 06:24N 59°53' E 010°46'0 0.0
2016-Dec-09 05:30N 59°53' E 010°46'0 0.0
2016-Dec-09 04:24N 59°53' E 010°46'0 0.0
2016-Dec-09 03:18N 59°53' E 010°46'0 0.0
2016-Dec-09 02:29N 59°53' E 010°46'0 0.0
2016-Dec-09 01:33N 59°53' E 010°46'9 9.3
2016-Dec-09 00:33N 59°46' E 010°34'1111.4
2016-Dec-08 23:33N 59°34' E 010°38'6 6.5
2016-Dec-08 22:33N 59°36' E 010°25'2 0.3
2016-Dec-08 15:28N 59°38' E 010°25'1011.2
2016-Dec-08 14:34N 59°28' E 010°30'1918.9
2016-Dec-08 13:34N 59°10' E 010°39'1818.0
2016-Dec-08 12:34N 58°54' E 010°25'1817.9
2016-Dec-08 11:33N 58°38' E 010°07'1817.8
2016-Dec-08 10:33N 58°23' E 009°48'17717.7
2016-Dec-08 00:32N 55°44' E 007°27'1717.0
2016-Dec-07 23:33N 55°27' E 007°24'1717.3
2016-Dec-07 22:33N 55°10' E 007°26'1717.4
2016-Dec-07 21:34N 54°53' E 007°27'6416.1
2016-Dec-07 17:33N 53°51' E 008°01'1717.2
2016-Dec-07 16:33N 53°40' E 008°23'8 8.1
2016-Dec-07 15:34N 53°34' E 008°33'0 0.3
2016-Dec-07 14:33N 53°35' E 008°34'0 0.0
2016-Dec-07 13:33N 53°35' E 008°34'0 0.0
2016-Dec-07 12:33N 53°35' E 008°34'0 0.0
2016-Dec-07 11:33N 53°35' E 008°34'0 0.0
2016-Dec-07 10:33N 53°35' E 008°34'0 0.0
2016-Dec-07 09:33N 53°35' E 008°34'0 0.0
2016-Dec-07 08:33N 53°35' E 008°34'1 0.6
2016-Dec-07 07:32N 53°34' E 008°34'0 0.0
2016-Dec-07 06:32N 53°34' E 008°34'0 0.0
2016-Dec-07 05:32N 53°34' E 008°34'0 0.0
2016-Dec-07 04:32N 53°34' E 008°34'0 0.5
2016-Dec-07 03:33N 53°34' E 008°34'3 2.9
2016-Dec-07 02:33N 53°36' E 008°31'1414.5
2016-Dec-07 01:33N 53°45' E 008°12'1514.9
2016-Dec-07 00:33N 53°52' E 007°50'1212.1
2016-Dec-06 23:33N 54°01' E 007°35'1211.9
2016-Dec-06 22:30N 54°12' E 007°27'1111.9
2016-Dec-06 21:33N 54°24' E 007°25'1411.4
2016-Dec-06 20:18N 54°38' E 007°25'2011.5
2016-Dec-06 18:33N 54°58' E 007°24'1211.7
2016-Dec-06 17:34N 55°10' E 007°24'1211.7
2016-Dec-06 16:32N 55°22' E 007°22'1211.9
2016-Dec-06 15:33N 55°33' E 007°22'1311.8
2016-Dec-06 14:26N 55°46' E 007°26'15912.9
2016-Dec-06 02:07N 58°09' E 009°33'2413.8
2016-Dec-06 00:22N 58°29' E 010°00'1114.1
2016-Dec-05 23:33N 58°38' E 010°13'1413.8
2016-Dec-05 22:33N 58°51' E 010°25'1414.2
2016-Dec-05 21:34N 59°04' E 010°36'1717.4
2016-Dec-05 20:33N 59°21' E 010°35'1717.5
2016-Dec-05 19:33N 59°39' E 010°37'1414.3
2016-Dec-05 18:33N 59°53' E 010°40'3 2.4
2016-Dec-05 17:13N 59°53' E 010°46'0 0.0
2016-Dec-05 16:31N 59°53' E 010°46'0 0.0
2016-Dec-05 15:31N 59°53' E 010°46'0 0.0
2016-Dec-05 14:28N 59°53' E 010°46'0 0.0
2016-Dec-05 13:31N 59°53' E 010°46'0 0.0
2016-Dec-05 12:31N 59°53' E 010°46'0 0.0
2016-Dec-05 11:31N 59°53' E 010°46'1010.4
2016-Dec-05 10:34N 59°45' E 010°34'1413.8
2016-Dec-05 09:33N 59°31' E 010°36'1918.6
2016-Dec-05 08:33N 59°13' E 010°39'1818.2
2016-Dec-05 07:34N 58°56' E 010°27'1817.9
2016-Dec-05 06:33N 58°41' E 010°08'1918.5
2016-Dec-05 05:33N 58°25' E 009°48'1918.6
2016-Dec-05 04:33N 58°09' E 009°29'16518.3
2016-Dec-04 19:32N 55°40' E 007°23'1818.7
2016-Dec-04 18:33N 55°21' E 007°25'1918.9
2016-Dec-04 17:33N 55°02' E 007°25'1919.3
2016-Dec-04 16:33N 54°43' E 007°27'3819.1
2016-Dec-04 14:33N 54°05' E 007°35'1817.5
2016-Dec-04 13:33N 53°52' E 007°55'1716.6
2016-Dec-04 12:33N 53°43' E 008°18'1313.4
2016-Dec-04 11:33N 53°33' E 008°33'1 0.7
2016-Dec-04 10:32N 53°34' E 008°34'0 0.0
2016-Dec-04 09:32N 53°34' E 008°34'0 0.0
2016-Dec-04 08:32N 53°34' E 008°34'0 0.0
2016-Dec-04 07:32N 53°34' E 008°34'0 0.0
2016-Dec-04 06:32N 53°34' E 008°34'0 0.0
2016-Dec-04 05:32N 53°34' E 008°34'0 0.0
2016-Dec-04 04:32N 53°34' E 008°34'0 0.0
2016-Dec-04 03:32N 53°34' E 008°34'0 0.2
2016-Dec-04 02:33N 53°34' E 008°34'0 0.4
2016-Dec-04 01:31N 53°34' E 008°34'0 0.0
2016-Dec-04 00:31N 53°34' E 008°34'0 0.0
2016-Dec-03 23:31N 53°34' E 008°34'0 0.0
2016-Dec-03 22:31N 53°34' E 008°34'0 0.0
2016-Dec-03 21:31N 53°34' E 008°34'0 0.0
2016-Dec-03 20:31N 53°34' E 008°34'0 0.0
2016-Dec-03 19:31N 53°34' E 008°34'0 0.0
2016-Dec-03 18:31N 53°34' E 008°34'0 0.0
2016-Dec-03 17:31N 53°34' E 008°34'0 0.0
2016-Dec-03 16:31N 53°34' E 008°34'0 0.0
2016-Dec-03 15:31N 53°34' E 008°34'0 0.0
2016-Dec-03 14:31N 53°34' E 008°34'0 0.0
2016-Dec-03 13:31N 53°34' E 008°34'0 0.0
2016-Dec-03 12:31N 53°34' E 008°34'0 0.0
2016-Dec-03 11:31N 53°34' E 008°34'0 0.0
2016-Dec-03 10:31N 53°34' E 008°34'0 0.0
2016-Dec-03 09:31N 53°34' E 008°34'0 0.0
2016-Dec-03 08:31N 53°34' E 008°34'0 0.0
2016-Dec-03 07:31N 53°34' E 008°34'0 0.0
2016-Dec-03 06:31N 53°34' E 008°34'0 0.0
2016-Dec-03 05:31N 53°34' E 008°34'1 0.5
2016-Dec-03 04:34N 53°33' E 008°34'3 2.8
2016-Dec-03 03:33N 53°36' E 008°31'1515.0
2016-Dec-03 02:33N 53°45' E 008°11'1313.1
2016-Dec-03 01:33N 53°52' E 007°52'56 9.4
2016-Dec-02 19:33N 54°46' E 007°25'1010.4
2016-Dec-02 18:34N 54°56' E 007°24'1010.2
2016-Dec-02 17:33N 55°07' E 007°24'10 9.8
2016-Dec-02 16:33N 55°16' E 007°24'9 9.5
2016-Dec-02 15:34N 55°26' E 007°23'10 9.6
2016-Dec-02 14:32N 55°36' E 007°21'9 9.5
2016-Dec-02 13:33N 55°44' E 007°26'20717.3
2016-Dec-02 01:33N 58°48' E 010°23'1616.3
2016-Dec-02 00:34N 58°34' E 010°07'1212.3
2016-Dec-01 23:33N 58°44' E 010°20'1312.7
2016-Dec-01 22:34N 58°56' E 010°30'1313.4
2016-Dec-01 21:33N 59°09' E 010°38'2019.6
2016-Dec-01 20:33N 59°28' E 010°30'1716.6
2016-Dec-01 19:31N 59°44' E 010°16'1 1.0
2016-Dec-01 18:31N 59°44' E 010°14'4 1.0
2016-Dec-01 14:12N 59°42' E 010°21'710.3
2016-Dec-01 13:33N 59°36' E 010°26'6 6.2
2016-Dec-01 12:33N 59°35' E 010°38'1615.6
2016-Dec-01 11:33N 59°50' E 010°35'6 6.1
2016-Dec-01 10:32N 59°53' E 010°46'0 0.0
2016-Dec-01 09:32N 59°53' E 010°46'0 0.0
2016-Dec-01 08:32N 59°53' E 010°46'0 0.0
2016-Dec-01 07:26N 59°53' E 010°46'6857.3
2016-Dec-01 06:15N 58°46' E 010°21'6840.0
2016-Dec-01 04:33N 59°53' E 010°45'1312.5
2016-Dec-01 03:33N 59°41' E 010°36'1515.1
2016-Dec-01 02:33N 59°26' E 010°34'1818.4
2016-Dec-01 01:33N 59°08' E 010°39'1818.3
2016-Dec-01 00:33N 58°52' E 010°22'1818.0
2016-Nov-30 23:33N 58°37' E 010°02'7979.1
2016-Nov-30 22:33N 59°53' E 010°46'0 0.0
2016-Nov-30 21:30N 59°53' E 010°46'0 0.0
2016-Nov-30 20:33N 59°53' E 010°46'0 0.0
2016-Nov-30 19:33N 59°53' E 010°46'0 0.0
2016-Nov-30 18:33N 59°53' E 010°46'0 0.0
2016-Nov-30 17:32N 59°53' E 010°46'0 0.0
2016-Nov-30 16:32N 59°53' E 010°46'0 0.0
2016-Nov-30 15:30N 59°53' E 010°46'0 0.0
2016-Nov-30 14:32N 59°53' E 010°46'0 0.0
2016-Nov-30 13:32N 59°53' E 010°46'0 0.0
2016-Nov-30 12:30N 59°53' E 010°46'286301.5
2016-Nov-30 11:33N 55°29' E 007°23'1615.7
2016-Nov-30 10:33N 55°13' E 007°25'1615.8
2016-Nov-30 09:33N 54°58' E 007°27'1616.0
2016-Nov-30 08:33N 54°42' E 007°30'295295.2
2016-Nov-30 07:33N 59°19' E 010°36'1212.2
2016-Nov-30 06:33N 59°07' E 010°38'1010.1
2016-Nov-30 05:33N 58°58' E 010°30'320320.0
2016-Nov-30 04:33N 53°47' E 008°09'1818.2
2016-Nov-30 03:33N 53°35' E 008°32'2 1.6
2016-Nov-30 02:33N 53°34' E 008°34'0 0.1
2016-Nov-30 01:31N 53°34' E 008°34'0 0.0
2016-Nov-30 00:31N 53°34' E 008°34'0 0.0
2016-Nov-29 23:28N 53°34' E 008°34'1 0.8
2016-Nov-29 22:33N 53°34' E 008°33'0 0.3
2016-Nov-29 21:31N 53°35' E 008°34'0 0.0
2016-Nov-29 20:31N 53°35' E 008°34'0 0.0
2016-Nov-29 19:31N 53°35' E 008°34'0 0.0
2016-Nov-29 18:31N 53°35' E 008°34'0 0.0
2016-Nov-29 17:31N 53°35' E 008°34'0 0.0
2016-Nov-29 16:31N 53°35' E 008°34'1 0.8
2016-Nov-29 15:33N 53°34' E 008°33'7 7.2
2016-Nov-29 14:34N 53°39' E 008°24'1312.7
2016-Nov-29 13:34N 53°48' E 008°08'1313.3
2016-Nov-29 12:33N 53°53' E 007°47'  

Dump ship's entire track history